createdAt,value
2019-01-14T00:02:46.439Z,82.50
2019-01-14T00:06:55.695Z,83.00
2019-01-14T00:11:04.938Z,83.50
2019-01-14T00:15:14.250Z,82.40
2019-01-14T00:19:23.476Z,82.40
2019-01-14T00:23:32.701Z,82.50
2019-01-14T00:27:41.921Z,83.20
2019-01-14T00:31:51.155Z,84.00
2019-01-14T00:36:00.742Z,84.00
2019-01-14T00:40:12.719Z,84.60
2019-01-14T00:44:22.021Z,85.20
2019-01-14T00:48:31.253Z,85.10
2019-01-14T00:52:40.505Z,85.60
2019-01-14T00:56:49.760Z,85.90
2019-01-14T01:00:59.081Z,86.60
2019-01-14T01:05:08.328Z,86.70
2019-01-14T01:09:17.535Z,86.80
2019-01-14T01:13:26.783Z,86.70
2019-01-14T01:17:36.021Z,86.40
2019-01-14T01:21:45.327Z,86.40
2019-01-14T01:25:54.560Z,86.30
2019-01-14T01:30:06.986Z,86.20
2019-01-14T01:34:16.205Z,85.60
2019-01-14T01:38:25.441Z,84.10
2019-01-14T01:42:34.710Z,82.60
2019-01-14T01:46:44.014Z,80.20
2019-01-14T01:50:53.243Z,79.60
2019-01-14T01:55:02.499Z,77.90
2019-01-14T01:59:11.795Z,77.60
2019-01-14T02:03:20.956Z,76.90
2019-01-14T02:07:30.228Z,76.40
2019-01-14T02:11:39.461Z,77.00
2019-01-14T02:15:48.684Z,77.10
2019-01-14T02:19:57.918Z,77.60
2019-01-14T02:24:07.135Z,78.80
2019-01-14T02:28:16.366Z,81.10
2019-01-14T02:32:25.636Z,82.90
2019-01-14T02:36:35.242Z,84.30
2019-01-14T02:40:44.593Z,83.90
2019-01-14T02:44:53.804Z,83.20
2019-01-14T02:49:03.024Z,82.30
2019-01-14T02:53:12.279Z,80.30
2019-01-14T02:57:21.522Z,79.10
2019-01-14T03:01:30.743Z,78.20
2019-01-14T03:05:39.974Z,78.00
2019-01-14T03:09:49.244Z,77.90
2019-01-14T03:13:58.484Z,78.40
2019-01-14T03:18:07.739Z,79.10
2019-01-14T03:22:16.944Z,79.90
2019-01-14T03:26:26.188Z,80.30
2019-01-14T03:30:35.433Z,80.10
2019-01-14T03:34:44.655Z,80.50
2019-01-14T03:38:53.919Z,80.60
2019-01-14T03:43:03.975Z,78.80
2019-01-14T03:47:13.377Z,77.70
2019-01-14T03:51:22.543Z,76.80
2019-01-14T03:55:32.145Z,76.00
2019-01-14T03:59:41.395Z,74.70
2019-01-14T04:03:50.674Z,75.00
2019-01-14T04:07:59.899Z,75.80
2019-01-14T04:12:09.143Z,76.60
2019-01-14T04:16:18.605Z,77.30
2019-01-14T04:20:27.820Z,78.00
2019-01-14T04:24:37.037Z,78.20
2019-01-14T04:28:46.272Z,77.30
2019-01-14T04:32:55.644Z,77.50
2019-01-14T04:37:04.887Z,77.50
2019-01-14T04:41:14.146Z,77.80
2019-01-14T04:45:23.380Z,77.70
2019-01-14T04:49:32.630Z,77.70
2019-01-14T04:53:41.880Z,77.80
2019-01-14T04:57:51.133Z,77.90
2019-01-14T05:02:00.368Z,77.80
2019-01-14T05:06:09.610Z,77.20
2019-01-14T05:10:20.521Z,77.20
2019-01-14T05:14:29.818Z,76.60
2019-01-14T05:18:39.490Z,76.70
2019-01-14T05:22:48.737Z,76.70
2019-01-14T05:26:58.006Z,77.20
2019-01-14T05:31:07.235Z,77.10
2019-01-14T05:35:16.480Z,78.00
2019-01-14T05:39:25.729Z,77.20
2019-01-14T05:43:36.336Z,77.60
2019-01-14T05:47:45.719Z,77.70
2019-01-14T05:51:54.962Z,78.20
2019-01-14T05:56:04.191Z,78.60
2019-01-14T06:00:22.239Z,78.60
2019-01-14T06:04:31.460Z,79.10
2019-01-14T06:08:40.746Z,79.30
2019-01-14T06:12:49.988Z,79.20
2019-01-14T06:16:59.201Z,78.90
2019-01-14T06:21:08.443Z,79.30
2019-01-14T06:25:17.719Z,79.60
2019-01-14T06:29:27.136Z,79.80
2019-01-14T06:33:36.349Z,80.10
2019-01-14T06:37:52.075Z,80.10
2019-01-14T06:41:56.425Z,80.00
2019-01-14T06:46:05.649Z,79.60
2019-01-14T06:50:16.934Z,79.60
2019-01-14T06:54:26.174Z,79.30
2019-01-14T06:58:35.397Z,79.20
2019-01-14T07:02:44.616Z,78.50
2019-01-14T07:06:53.853Z,79.00
2019-01-14T07:11:03.836Z,80.00
2019-01-14T07:15:13.061Z,80.40
2019-01-14T07:19:22.388Z,81.60
2019-01-14T07:23:31.653Z,83.90
2019-01-14T07:27:40.863Z,86.80
2019-01-14T07:31:50.100Z,89.10
2019-01-14T07:35:59.357Z,88.40
2019-01-14T07:40:11.925Z,87.30
2019-01-14T07:44:21.128Z,83.90
2019-01-14T07:48:30.405Z,82.90
2019-01-14T07:52:39.631Z,82.90
2019-01-14T07:56:49.318Z,81.80
2019-01-14T08:00:58.692Z,81.00
2019-01-14T08:05:08.411Z,81.00
2019-01-14T08:09:17.638Z,78.60
2019-01-14T08:13:26.857Z,77.70
2019-01-14T08:17:36.090Z,77.00
2019-01-14T08:21:45.435Z,76.30
2019-01-14T08:25:54.701Z,75.30
2019-01-14T08:30:06.884Z,73.50
2019-01-14T08:34:16.106Z,73.40
2019-01-14T08:38:25.320Z,72.20
2019-01-14T08:42:34.874Z,72.00
2019-01-14T08:46:44.172Z,72.20
2019-01-14T08:50:53.406Z,72.90
2019-01-14T08:55:02.628Z,74.10
2019-01-14T08:59:11.870Z,73.90
2019-01-14T09:03:21.110Z,73.80
2019-01-14T09:07:30.346Z,73.60
2019-01-14T09:11:39.568Z,73.60
2019-01-14T09:15:48.786Z,74.10
2019-01-14T09:19:58.028Z,74.90
2019-01-14T09:24:07.445Z,76.00
2019-01-14T09:28:16.761Z,76.80
2019-01-14T09:32:25.998Z,77.50
2019-01-14T09:36:35.272Z,78.40
2019-01-14T09:40:44.456Z,79.30
2019-01-14T09:44:53.692Z,81.00
2019-01-14T09:49:02.916Z,80.70
2019-01-14T09:53:12.154Z,79.10
2019-01-14T09:57:21.433Z,77.70
2019-01-14T10:01:30.682Z,78.00
2019-01-14T10:05:39.906Z,76.80
2019-01-14T10:09:49.133Z,76.40
2019-01-14T10:13:58.350Z,76.50
2019-01-14T10:18:07.612Z,77.20
2019-01-14T10:22:17.052Z,75.70
2019-01-14T10:26:26.275Z,75.10
2019-01-14T10:30:35.762Z,74.90
2019-01-14T10:34:44.968Z,75.80
2019-01-14T10:38:54.202Z,73.90
2019-01-14T10:43:03.538Z,73.30
2019-01-14T10:47:12.898Z,72.40
2019-01-14T10:51:22.158Z,70.90
2019-01-14T10:55:31.373Z,70.00
2019-01-14T10:59:40.599Z,69.60
2019-01-14T11:03:49.882Z,70.10
2019-01-14T11:07:59.103Z,71.30
2019-01-14T11:12:08.338Z,72.10
2019-01-14T11:16:17.731Z,71.80
2019-01-14T11:20:28.579Z,69.60
2019-01-14T11:24:42.452Z,68.10
2019-01-14T11:28:51.667Z,67.00
2019-01-14T11:33:00.967Z,68.60
2019-01-14T11:37:10.451Z,70.40
2019-01-14T11:41:19.703Z,72.20
2019-01-14T11:45:28.931Z,73.10
2019-01-14T11:49:38.173Z,73.70
2019-01-14T11:53:47.463Z,73.10
2019-01-14T11:57:56.708Z,69.40
2019-01-14T12:02:05.957Z,65.40
2019-01-14T12:06:15.236Z,62.60
2019-01-14T12:10:24.464Z,64.50
2019-01-14T12:14:33.682Z,67.40
2019-01-14T12:18:42.895Z,68.50
2019-01-14T12:22:52.489Z,69.00
2019-01-14T12:27:01.692Z,67.50
2019-01-14T12:31:11.034Z,68.90
2019-01-14T12:35:20.255Z,70.40
2019-01-14T12:39:29.528Z,73.20
2019-01-14T12:43:38.891Z,88.00
2019-01-14T12:47:48.231Z,91.70
2019-01-14T12:51:57.496Z,92.90
2019-01-14T12:56:06.762Z,93.00
2019-01-14T13:00:19.293Z,92.80
2019-01-14T13:04:28.513Z,92.30
2019-01-14T13:08:38.021Z,91.50
2019-01-14T13:12:47.344Z,90.90
2019-01-14T13:16:56.641Z,90.10
2019-01-14T13:21:05.913Z,89.00
2019-01-14T13:25:15.189Z,89.10
2019-01-14T13:29:24.425Z,89.50
2019-01-14T13:33:33.712Z,90.50
2019-01-14T13:37:42.932Z,91.80
2019-01-14T13:41:52.179Z,93.10
2019-01-14T13:46:01.417Z,93.70
2019-01-14T13:50:13.995Z,93.90
2019-01-14T13:54:23.463Z,93.20
2019-01-14T13:58:32.805Z,92.60
2019-01-14T14:02:42.023Z,92.30
2019-01-14T14:06:51.315Z,93.40
2019-01-14T14:11:01.147Z,94.40
2019-01-14T14:15:13.136Z,94.70
2019-01-14T14:19:22.378Z,95.50
2019-01-14T14:23:31.596Z,96.80
2019-01-14T14:27:40.901Z,98.10
2019-01-14T14:31:50.163Z,98.20
2019-01-14T14:35:59.534Z,98.40
2019-01-14T14:40:09.951Z,98.40
2019-01-14T14:44:19.180Z,98.10
2019-01-14T14:48:28.408Z,98.20
2019-01-14T14:52:37.687Z,97.80
2019-01-14T14:56:46.932Z,97.70
2019-01-14T15:00:56.182Z,96.90
2019-01-14T15:05:07.460Z,96.30
2019-01-14T15:09:16.749Z,95.80
2019-01-14T15:13:26.028Z,95.00
2019-01-14T15:17:35.247Z,94.70
2019-01-14T15:21:44.457Z,94.40
2019-01-14T15:25:53.674Z,94.50
2019-01-14T15:30:03.274Z,93.80
2019-01-14T15:34:12.637Z,94.10
2019-01-14T15:38:21.875Z,93.60
2019-01-14T15:42:31.098Z,93.50
2019-01-14T15:46:40.370Z,93.00
2019-01-14T15:50:49.636Z,93.10
2019-01-14T15:54:58.856Z,93.00
2019-01-14T15:59:08.097Z,93.00
2019-01-14T16:03:17.447Z,93.00
2019-01-14T16:07:26.797Z,92.60
2019-01-14T16:11:36.056Z,92.30
2019-01-14T16:15:45.351Z,92.10
2019-01-14T16:19:54.864Z,92.40
2019-01-14T16:24:04.108Z,92.40
2019-01-14T16:28:16.617Z,92.30
2019-01-14T16:32:26.677Z,92.10
2019-01-14T16:36:35.923Z,91.70
2019-01-14T16:40:45.649Z,91.60
2019-01-14T16:44:54.889Z,91.40
2019-01-14T16:49:04.520Z,91.10
2019-01-14T16:53:13.744Z,91.10
2019-01-14T16:57:25.468Z,90.70
2019-01-14T17:01:34.768Z,90.60
2019-01-14T17:05:44.296Z,90.20
2019-01-14T17:09:53.455Z,90.30
2019-01-14T17:14:03.324Z,90.30
2019-01-14T17:18:12.615Z,90.30
2019-01-14T17:22:21.839Z,90.50
2019-01-14T17:26:31.909Z,90.70
2019-01-14T17:30:41.515Z,90.70
2019-01-14T17:34:50.751Z,90.70
2019-01-14T17:39:00.011Z,90.70
2019-01-14T17:43:09.217Z,90.90
2019-01-14T17:47:18.444Z,90.90
2019-01-14T17:51:27.668Z,90.80
2019-01-14T17:55:36.908Z,90.70
2019-01-14T17:59:46.129Z,90.50
2019-01-14T18:03:55.368Z,90.30
2019-01-14T18:08:07.088Z,90.50
2019-01-14T18:12:16.048Z,90.50
2019-01-14T18:16:25.379Z,90.40
2019-01-14T18:20:34.606Z,90.40
2019-01-14T18:24:43.911Z,90.70
2019-01-14T18:28:53.158Z,90.60
2019-01-14T18:33:02.384Z,90.60
2019-01-14T18:37:11.634Z,90.50
2019-01-14T18:41:23.699Z,90.60
2019-01-14T18:45:32.946Z,90.50
2019-01-14T18:49:42.187Z,90.80
2019-01-14T18:53:51.399Z,90.80
2019-01-14T18:58:00.637Z,90.80
2019-01-14T19:02:10.011Z,90.90
2019-01-14T19:06:19.323Z,91.00
2019-01-14T19:10:28.610Z,90.90
2019-01-14T19:14:39.133Z,90.80
2019-01-14T19:18:48.770Z,90.70
2019-01-14T19:22:58.111Z,90.70
2019-01-14T19:27:07.328Z,90.70
2019-01-14T19:31:16.677Z,90.60
2019-01-14T19:35:25.909Z,90.50
2019-01-14T19:39:35.163Z,90.30
2019-01-14T19:43:44.471Z,90.10
2019-01-14T19:47:53.700Z,90.00
2019-01-14T19:52:03.065Z,90.10
2019-01-14T19:56:12.355Z,90.00
2019-01-14T20:00:24.120Z,89.60
2019-01-14T20:04:33.393Z,89.50
2019-01-14T20:08:42.610Z,88.90
2019-01-14T20:12:51.858Z,89.00
2019-01-14T20:17:01.130Z,89.10
2019-01-14T20:21:10.818Z,89.00
2019-01-14T20:25:20.017Z,88.70
2019-01-14T20:29:29.303Z,88.40
2019-01-14T20:33:38.587Z,88.60
2019-01-14T20:37:47.857Z,88.70
2019-01-14T20:41:57.061Z,89.20
2019-01-14T20:46:06.293Z,88.90
2019-01-14T20:50:17.523Z,88.80
2019-01-14T20:54:26.754Z,88.90
2019-01-14T20:58:35.981Z,88.90
2019-01-14T21:02:45.209Z,89.00
2019-01-14T21:06:54.448Z,89.00
2019-01-14T21:11:03.700Z,88.90
2019-01-14T21:15:12.997Z,88.70
2019-01-14T21:19:22.412Z,88.70
2019-01-14T21:23:31.661Z,89.00
2019-01-14T21:27:40.899Z,89.20
2019-01-14T21:31:50.150Z,89.20
2019-01-14T21:35:59.392Z,89.00
2019-01-14T21:40:10.866Z,89.00
2019-01-14T21:44:20.089Z,88.00
2019-01-14T21:48:29.361Z,87.40
2019-01-14T21:52:38.624Z,87.00
2019-01-14T21:56:47.888Z,86.20
2019-01-14T22:00:57.290Z,86.20
2019-01-14T22:05:06.698Z,85.20
2019-01-14T22:09:15.937Z,85.10
2019-01-14T22:13:25.178Z,85.50
2019-01-14T22:17:37.684Z,85.10
2019-01-14T22:21:47.013Z,85.40
2019-01-14T22:25:56.220Z,85.50
2019-01-14T22:30:23.192Z,85.50
2019-01-14T22:34:32.761Z,85.30
2019-01-14T22:38:42.068Z,85.80
2019-01-14T22:42:51.849Z,86.00
2019-01-14T22:47:01.605Z,86.50
2019-01-14T22:51:11.351Z,87.00
2019-01-14T22:55:21.232Z,87.10
2019-01-14T22:59:30.417Z,87.30
2019-01-14T23:03:39.652Z,87.60
2019-01-14T23:07:48.875Z,87.90
2019-01-14T23:11:58.123Z,88.00
2019-01-14T23:16:07.366Z,88.50
2019-01-14T23:20:16.625Z,88.50
2019-01-14T23:24:25.878Z,89.00
2019-01-14T23:28:35.119Z,89.90
2019-01-14T23:32:44.351Z,90.10
2019-01-14T23:36:53.584Z,90.10
2019-01-14T23:41:02.804Z,90.10
2019-01-14T23:45:12.094Z,89.90
2019-01-14T23:49:21.335Z,89.80
2019-01-14T23:53:30.551Z,89.40
2019-01-14T23:57:39.811Z,89.40
